sensor_id;sensor_type;location;lat;lon;timestamp;P1;durP1;ratioP1;P2;durP2;ratioP2
69401;SDS011;56589;51.992;5.924;2022-07-12T00:00:28;3.85;;;1.92;;
69401;SDS011;56589;51.992;5.924;2022-07-12T00:02:54;2.85;;;1.52;;
69401;SDS011;56589;51.992;5.924;2022-07-12T00:05:20;2.47;;;1.50;;
69401;SDS011;56589;51.992;5.924;2022-07-12T00:07:45;2.53;;;1.25;;
69401;SDS011;56589;51.992;5.924;2022-07-12T00:10:11;1.77;;;1.25;;
69401;SDS011;56589;51.992;5.924;2022-07-12T00:12:37;1.67;;;1.40;;
69401;SDS011;56589;51.992;5.924;2022-07-12T00:15:07;2.45;;;1.20;;
69401;SDS011;56589;51.992;5.924;2022-07-12T00:17:34;5.18;;;1.50;;
69401;SDS011;56589;51.992;5.924;2022-07-12T00:20:00;1.80;;;1.50;;
69401;SDS011;56589;51.992;5.924;2022-07-12T00:22:26;2.65;;;1.63;;
69401;SDS011;56589;51.992;5.924;2022-07-12T00:24:51;3.45;;;1.70;;
69401;SDS011;56589;51.992;5.924;2022-07-12T00:27:17;1.98;;;1.30;;
69401;SDS011;56589;51.992;5.924;2022-07-12T00:29:43;3.13;;;1.50;;
69401;SDS011;56589;51.992;5.924;2022-07-12T00:32:11;4.43;;;1.60;;
69401;SDS011;56589;51.992;5.924;2022-07-12T00:34:37;2.83;;;1.45;;
69401;SDS011;56589;51.992;5.924;2022-07-12T00:37:03;2.83;;;1.50;;
69401;SDS011;56589;51.992;5.924;2022-07-12T00:39:29;1.92;;;1.73;;
69401;SDS011;56589;51.992;5.924;2022-07-12T00:41:54;3.00;;;2.03;;
69401;SDS011;56589;51.992;5.924;2022-07-12T00:44:20;2.53;;;1.42;;
69401;SDS011;56589;51.992;5.924;2022-07-12T00:46:46;2.15;;;1.90;;
69401;SDS011;56589;51.992;5.924;2022-07-12T00:49:14;2.05;;;1.63;;
69401;SDS011;56589;51.992;5.924;2022-07-12T00:51:40;2.13;;;1.52;;
69401;SDS011;56589;51.992;5.924;2022-07-12T00:54:07;3.05;;;1.80;;
69401;SDS011;56589;51.992;5.924;2022-07-12T00:56:34;3.53;;;2.05;;
69401;SDS011;56589;51.992;5.924;2022-07-12T00:59:00;3.25;;;1.60;;
69401;SDS011;56589;51.992;5.924;2022-07-12T01:01:26;2.05;;;1.85;;
69401;SDS011;56589;51.992;5.924;2022-07-12T01:03:52;4.13;;;1.65;;
69401;SDS011;56589;51.992;5.924;2022-07-12T01:06:22;5.78;;;2.33;;
69401;SDS011;56589;51.992;5.924;2022-07-12T01:08:49;3.15;;;2.10;;
69401;SDS011;56589;51.992;5.924;2022-07-12T01:11:15;5.10;;;1.95;;
69401;SDS011;56589;51.992;5.924;2022-07-12T01:13:41;4.20;;;1.65;;
69401;SDS011;56589;51.992;5.924;2022-07-12T01:16:08;4.53;;;2.30;;
69401;SDS011;56589;51.992;5.924;2022-07-12T01:18:39;3.67;;;2.33;;
69401;SDS011;56589;51.992;5.924;2022-07-12T01:21:05;2.70;;;2.10;;
69401;SDS011;56589;51.992;5.924;2022-07-12T01:23:35;3.05;;;2.40;;
69401;SDS011;56589;51.992;5.924;2022-07-12T01:26:04;3.63;;;2.85;;
69401;SDS011;56589;51.992;5.924;2022-07-12T01:28:30;4.93;;;3.00;;
69401;SDS011;56589;51.992;5.924;2022-07-12T01:30:56;3.58;;;2.90;;
69401;SDS011;56589;51.992;5.924;2022-07-12T01:33:22;3.00;;;2.70;;
69401;SDS011;56589;51.992;5.924;2022-07-12T01:35:49;3.88;;;2.65;;
69401;SDS011;56589;51.992;5.924;2022-07-12T01:38:15;2.80;;;2.50;;
69401;SDS011;56589;51.992;5.924;2022-07-12T01:40:44;4.72;;;2.80;;
69401;SDS011;56589;51.992;5.924;2022-07-12T01:43:10;3.33;;;3.00;;
69401;SDS011;56589;51.992;5.924;2022-07-12T01:45:36;3.97;;;2.70;;
69401;SDS011;56589;51.992;5.924;2022-07-12T01:48:02;3.05;;;2.75;;
69401;SDS011;56589;51.992;5.924;2022-07-12T01:50:29;4.10;;;2.28;;
69401;SDS011;56589;51.992;5.924;2022-07-12T01:52:54;3.28;;;2.65;;
69401;SDS011;56589;51.992;5.924;2022-07-12T01:55:20;4.07;;;3.00;;
69401;SDS011;56589;51.992;5.924;2022-07-12T01:57:49;3.95;;;3.10;;
69401;SDS011;56589;51.992;5.924;2022-07-12T02:00:15;4.03;;;3.47;;
69401;SDS011;56589;51.992;5.924;2022-07-12T02:02:41;7.30;;;3.13;;
69401;SDS011;56589;51.992;5.924;2022-07-12T02:05:10;4.47;;;2.90;;
69401;SDS011;56589;51.992;5.924;2022-07-12T02:07:36;4.75;;;2.75;;
69401;SDS011;56589;51.992;5.924;2022-07-12T02:10:03;4.72;;;2.88;;
69401;SDS011;56589;51.992;5.924;2022-07-12T02:12:31;2.78;;;2.50;;
69401;SDS011;56589;51.992;5.924;2022-07-12T02:14:59;3.75;;;2.75;;
69401;SDS011;56589;51.992;5.924;2022-07-12T02:17:25;3.85;;;2.63;;
69401;SDS011;56589;51.992;5.924;2022-07-12T02:19:51;2.97;;;2.70;;
69401;SDS011;56589;51.992;5.924;2022-07-12T02:22:17;3.47;;;3.17;;
69401;SDS011;56589;51.992;5.924;2022-07-12T02:24:43;5.18;;;3.30;;
69401;SDS011;56589;51.992;5.924;2022-07-12T02:27:08;4.22;;;2.75;;
69401;SDS011;56589;51.992;5.924;2022-07-12T02:29:34;5.07;;;3.30;;
69401;SDS011;56589;51.992;5.924;2022-07-12T02:32:03;3.35;;;3.05;;
69401;SDS011;56589;51.992;5.924;2022-07-12T02:34:29;7.22;;;3.42;;
69401;SDS011;56589;51.992;5.924;2022-07-12T02:36:55;3.47;;;2.97;;
69401;SDS011;56589;51.992;5.924;2022-07-12T02:39:21;5.55;;;3.28;;
69401;SDS011;56589;51.992;5.924;2022-07-12T02:41:47;3.97;;;3.50;;
69401;SDS011;56589;51.992;5.924;2022-07-12T02:44:12;3.92;;;3.58;;
69401;SDS011;56589;51.992;5.924;2022-07-12T02:46:38;5.57;;;3.45;;
69401;SDS011;56589;51.992;5.924;2022-07-12T02:49:07;4.65;;;3.88;;
69401;SDS011;56589;51.992;5.924;2022-07-12T02:51:33;4.70;;;4.00;;
69401;SDS011;56589;51.992;5.924;2022-07-12T02:53:58;4.50;;;4.10;;
69401;SDS011;56589;51.992;5.924;2022-07-12T02:56:24;5.13;;;4.10;;
69401;SDS011;56589;51.992;5.924;2022-07-12T02:58:50;4.97;;;3.72;;
69401;SDS011;56589;51.992;5.924;2022-07-12T03:01:16;4.18;;;3.78;;
69401;SDS011;56589;51.992;5.924;2022-07-12T03:03:42;4.75;;;4.25;;
69401;SDS011;56589;51.992;5.924;2022-07-12T03:06:10;5.85;;;4.40;;
69401;SDS011;56589;51.992;5.924;2022-07-12T03:08:36;5.65;;;4.05;;
69401;SDS011;56589;51.992;5.924;2022-07-12T03:11:02;4.53;;;4.13;;
69401;SDS011;56589;51.992;5.924;2022-07-12T03:13:28;4.45;;;3.40;;
69401;SDS011;56589;51.992;5.924;2022-07-12T03:15:53;6.18;;;4.20;;
69401;SDS011;56589;51.992;5.924;2022-07-12T03:18:19;5.20;;;4.38;;
69401;SDS011;56589;51.992;5.924;2022-07-12T03:20:45;5.15;;;4.28;;
69401;SDS011;56589;51.992;5.924;2022-07-12T03:23:13;7.60;;;4.57;;
69401;SDS011;56589;51.992;5.924;2022-07-12T03:25:39;4.47;;;4.03;;
69401;SDS011;56589;51.992;5.924;2022-07-12T03:28:05;7.45;;;5.03;;
69401;SDS011;56589;51.992;5.924;2022-07-12T03:30:31;4.93;;;4.45;;
69401;SDS011;56589;51.992;5.924;2022-07-12T03:32:57;5.50;;;4.80;;
69401;SDS011;56589;51.992;5.924;2022-07-12T03:35:23;5.93;;;4.85;;
69401;SDS011;56589;51.992;5.924;2022-07-12T03:37:49;5.72;;;5.22;;
69401;SDS011;56589;51.992;5.924;2022-07-12T03:40:20;5.95;;;5.32;;
69401;SDS011;56589;51.992;5.924;2022-07-12T03:42:47;5.78;;;5.05;;
69401;SDS011;56589;51.992;5.924;2022-07-12T03:45:13;6.20;;;4.97;;
69401;SDS011;56589;51.992;5.924;2022-07-12T03:47:39;5.82;;;5.28;;
69401;SDS011;56589;51.992;5.924;2022-07-12T03:50:07;6.85;;;5.50;;
69401;SDS011;56589;51.992;5.924;2022-07-12T03:52:35;7.47;;;5.03;;
69401;SDS011;56589;51.992;5.924;2022-07-12T03:55:01;5.80;;;4.90;;
69401;SDS011;56589;51.992;5.924;2022-07-12T03:57:31;5.65;;;4.65;;
69401;SDS011;56589;51.992;5.924;2022-07-12T03:59:57;6.82;;;5.35;;
69401;SDS011;56589;51.992;5.924;2022-07-12T04:02:23;6.75;;;5.45;;
69401;SDS011;56589;51.992;5.924;2022-07-12T04:04:49;7.43;;;5.40;;
69401;SDS011;56589;51.992;5.924;2022-07-12T04:07:15;7.57;;;6.30;;
69401;SDS011;56589;51.992;5.924;2022-07-12T04:09:42;7.15;;;5.82;;
69401;SDS011;56589;51.992;5.924;2022-07-12T04:12:08;8.02;;;5.78;;
69401;SDS011;56589;51.992;5.924;2022-07-12T04:14:37;6.40;;;5.80;;
69401;SDS011;56589;51.992;5.924;2022-07-12T04:17:03;6.72;;;6.03;;
69401;SDS011;56589;51.992;5.924;2022-07-12T04:19:29;7.18;;;6.45;;
69401;SDS011;56589;51.992;5.924;2022-07-12T04:21:56;6.70;;;6.00;;
69401;SDS011;56589;51.992;5.924;2022-07-12T04:24:22;7.43;;;6.15;;
69401;SDS011;56589;51.992;5.924;2022-07-12T04:26:48;11.00;;;6.55;;
69401;SDS011;56589;51.992;5.924;2022-07-12T04:29:14;6.90;;;6.22;;
69401;SDS011;56589;51.992;5.924;2022-07-12T04:31:43;8.63;;;6.28;;
69401;SDS011;56589;51.992;5.924;2022-07-12T04:34:09;8.30;;;6.38;;
69401;SDS011;56589;51.992;5.924;2022-07-12T04:36:35;7.07;;;6.38;;
69401;SDS011;56589;51.992;5.924;2022-07-12T04:39:01;7.68;;;6.95;;
69401;SDS011;56589;51.992;5.924;2022-07-12T04:41:27;6.60;;;6.00;;
69401;SDS011;56589;51.992;5.924;2022-07-12T04:43:53;7.07;;;5.45;;
69401;SDS011;56589;51.992;5.924;2022-07-12T04:46:19;5.38;;;4.65;;
69401;SDS011;56589;51.992;5.924;2022-07-12T04:48:47;5.22;;;4.22;;
69401;SDS011;56589;51.992;5.924;2022-07-12T04:51:13;5.10;;;4.50;;
69401;SDS011;56589;51.992;5.924;2022-07-12T04:53:39;4.80;;;4.40;;
69401;SDS011;56589;51.992;5.924;2022-07-12T04:56:04;4.32;;;3.90;;
69401;SDS011;56589;51.992;5.924;2022-07-12T04:58:31;5.25;;;4.22;;
69401;SDS011;56589;51.992;5.924;2022-07-12T05:00:57;4.43;;;3.92;;
69401;SDS011;56589;51.992;5.924;2022-07-12T05:03:22;4.18;;;3.78;;
69401;SDS011;56589;51.992;5.924;2022-07-12T05:05:51;3.88;;;3.47;;
69401;SDS011;56589;51.992;5.924;2022-07-12T05:08:18;4.18;;;3.78;;
69401;SDS011;56589;51.992;5.924;2022-07-12T05:10:44;4.28;;;3.92;;
69401;SDS011;56589;51.992;5.924;2022-07-12T05:13:10;4.78;;;3.53;;
69401;SDS011;56589;51.992;5.924;2022-07-12T05:15:36;3.80;;;3.25;;
69401;SDS011;56589;51.992;5.924;2022-07-12T05:18:02;4.80;;;4.15;;
69401;SDS011;56589;51.992;5.924;2022-07-12T05:20:28;4.38;;;3.47;;
69401;SDS011;56589;51.992;5.924;2022-07-12T05:22:57;4.68;;;3.97;;
69401;SDS011;56589;51.992;5.924;2022-07-12T05:25:23;3.60;;;3.30;;
69401;SDS011;56589;51.992;5.924;2022-07-12T05:27:48;4.72;;;3.83;;
69401;SDS011;56589;51.992;5.924;2022-07-12T05:30:14;4.53;;;3.65;;
69401;SDS011;56589;51.992;5.924;2022-07-12T05:32:40;4.15;;;3.40;;
69401;SDS011;56589;51.992;5.924;2022-07-12T05:35:06;4.15;;;3.75;;
69401;SDS011;56589;51.992;5.924;2022-07-12T05:37:33;4.45;;;3.85;;
69401;SDS011;56589;51.992;5.924;2022-07-12T05:40:01;3.47;;;3.17;;
69401;SDS011;56589;51.992;5.924;2022-07-12T05:42:28;3.67;;;3.38;;
69401;SDS011;56589;51.992;5.924;2022-07-12T05:44:54;6.45;;;4.15;;
69401;SDS011;56589;51.992;5.924;2022-07-12T05:47:20;5.07;;;4.68;;
69401;SDS011;56589;51.992;5.924;2022-07-12T05:49:45;6.28;;;5.13;;
69401;SDS011;56589;51.992;5.924;2022-07-12T05:52:11;6.90;;;6.30;;
69401;SDS011;56589;51.992;5.924;2022-07-12T05:54:37;6.45;;;5.85;;
69401;SDS011;56589;51.992;5.924;2022-07-12T05:57:06;5.90;;;5.35;;
69401;SDS011;56589;51.992;5.924;2022-07-12T05:59:34;6.78;;;5.63;;
69401;SDS011;56589;51.992;5.924;2022-07-12T06:01:59;6.70;;;5.88;;
69401;SDS011;56589;51.992;5.924;2022-07-12T06:04:25;6.00;;;5.50;;
69401;SDS011;56589;51.992;5.924;2022-07-12T06:06:51;5.97;;;5.38;;
69401;SDS011;56589;51.992;5.924;2022-07-12T06:09:17;6.85;;;4.80;;
69401;SDS011;56589;51.992;5.924;2022-07-12T06:11:43;5.10;;;4.35;;
69401;SDS011;56589;51.992;5.924;2022-07-12T06:14:11;4.55;;;4.15;;
69401;SDS011;56589;51.992;5.924;2022-07-12T06:16:37;4.13;;;3.72;;
69401;SDS011;56589;51.992;5.924;2022-07-12T06:19:03;3.78;;;3.47;;
69401;SDS011;56589;51.992;5.924;2022-07-12T06:21:28;4.22;;;3.63;;
69401;SDS011;56589;51.992;5.924;2022-07-12T06:23:54;5.93;;;3.97;;
69401;SDS011;56589;51.992;5.924;2022-07-12T06:26:20;5.32;;;4.00;;
69401;SDS011;56589;51.992;5.924;2022-07-12T06:28:46;8.07;;;3.80;;
69401;SDS011;56589;51.992;5.924;2022-07-12T06:31:14;6.00;;;3.42;;
69401;SDS011;56589;51.992;5.924;2022-07-12T06:33:40;3.67;;;3.38;;
69401;SDS011;56589;51.992;5.924;2022-07-12T06:36:06;4.13;;;3.35;;
69401;SDS011;56589;51.992;5.924;2022-07-12T06:38:32;3.90;;;3.60;;
69401;SDS011;56589;51.992;5.924;2022-07-12T06:40:57;4.63;;;4.22;;
69401;SDS011;56589;51.992;5.924;2022-07-12T06:43:23;4.10;;;3.75;;
69401;SDS011;56589;51.992;5.924;2022-07-12T06:45:49;4.40;;;3.95;;
69401;SDS011;56589;51.992;5.924;2022-07-12T06:48:17;4.32;;;3.65;;
69401;SDS011;56589;51.992;5.924;2022-07-12T06:50:43;5.88;;;3.20;;
69401;SDS011;56589;51.992;5.924;2022-07-12T06:53:10;4.30;;;3.55;;
69401;SDS011;56589;51.992;5.924;2022-07-12T06:55:37;5.10;;;3.03;;
69401;SDS011;56589;51.992;5.924;2022-07-12T06:58:02;3.33;;;3.03;;
69401;SDS011;56589;51.992;5.924;2022-07-12T07:00:28;3.40;;;3.10;;
69401;SDS011;56589;51.992;5.924;2022-07-12T07:02:54;3.88;;;3.00;;
69401;SDS011;56589;51.992;5.924;2022-07-12T07:05:22;6.20;;;3.17;;
69401;SDS011;56589;51.992;5.924;2022-07-12T07:07:48;4.53;;;2.88;;
69401;SDS011;56589;51.992;5.924;2022-07-12T07:10:14;3.45;;;2.80;;
69401;SDS011;56589;51.992;5.924;2022-07-12T07:12:40;3.35;;;2.58;;
69401;SDS011;56589;51.992;5.924;2022-07-12T07:15:06;3.53;;;2.60;;
69401;SDS011;56589;51.992;5.924;2022-07-12T07:17:32;4.88;;;2.80;;
69401;SDS011;56589;51.992;5.924;2022-07-12T07:19:58;6.90;;;2.60;;
69401;SDS011;56589;51.992;5.924;2022-07-12T07:22:26;2.80;;;2.45;;
69401;SDS011;56589;51.992;5.924;2022-07-12T07:24:55;4.17;;;2.83;;
69401;SDS011;56589;51.992;5.924;2022-07-12T07:27:21;4.78;;;2.63;;
69401;SDS011;56589;51.992;5.924;2022-07-12T07:29:46;3.55;;;2.53;;
69401;SDS011;56589;51.992;5.924;2022-07-12T07:32:12;5.72;;;2.40;;
69401;SDS011;56589;51.992;5.924;2022-07-12T07:34:38;2.70;;;2.20;;
69401;SDS011;56589;51.992;5.924;2022-07-12T07:37:04;3.97;;;2.50;;
69401;SDS011;56589;51.992;5.924;2022-07-12T07:39:33;3.33;;;2.65;;
69401;SDS011;56589;51.992;5.924;2022-07-12T07:41:59;2.88;;;2.53;;
69401;SDS011;56589;51.992;5.924;2022-07-12T07:44:24;2.60;;;2.40;;
69401;SDS011;56589;51.992;5.924;2022-07-12T07:46:50;5.05;;;2.50;;
69401;SDS011;56589;51.992;5.924;2022-07-12T07:49:16;6.97;;;2.83;;
69401;SDS011;56589;51.992;5.924;2022-07-12T07:51:42;7.18;;;2.72;;
69401;SDS011;56589;51.992;5.924;2022-07-12T07:54:07;2.30;;;2.10;;
69401;SDS011;56589;51.992;5.924;2022-07-12T07:56:36;3.28;;;2.22;;
69401;SDS011;56589;51.992;5.924;2022-07-12T07:59:02;5.22;;;2.92;;
69401;SDS011;56589;51.992;5.924;2022-07-12T08:01:27;4.60;;;2.92;;
69401;SDS011;56589;51.992;5.924;2022-07-12T08:03:53;5.50;;;2.67;;
69401;SDS011;56589;51.992;5.924;2022-07-12T08:06:19;4.30;;;2.63;;
69401;SDS011;56589;51.992;5.924;2022-07-12T08:08:45;3.40;;;2.95;;
69401;SDS011;56589;51.992;5.924;2022-07-12T08:11:11;4.07;;;2.83;;
69401;SDS011;56589;51.992;5.924;2022-07-12T08:13:39;5.25;;;3.20;;
69401;SDS011;56589;51.992;5.924;2022-07-12T08:16:05;6.28;;;3.10;;
69401;SDS011;56589;51.992;5.924;2022-07-12T08:18:31;5.93;;;2.70;;
69401;SDS011;56589;51.992;5.924;2022-07-12T08:20:56;3.75;;;2.80;;
69401;SDS011;56589;51.992;5.924;2022-07-12T08:23:22;4.22;;;2.50;;
69401;SDS011;56589;51.992;5.924;2022-07-12T08:25:48;2.35;;;2.13;;
69401;SDS011;56589;51.992;5.924;2022-07-12T08:28:13;3.80;;;2.60;;
69401;SDS011;56589;51.992;5.924;2022-07-12T08:30:42;2.58;;;2.38;;
69401;SDS011;56589;51.992;5.924;2022-07-12T08:33:08;4.05;;;3.20;;
69401;SDS011;56589;51.992;5.924;2022-07-12T08:35:34;3.60;;;2.65;;
69401;SDS011;56589;51.992;5.924;2022-07-12T08:38:00;3.65;;;2.40;;
69401;SDS011;56589;51.992;5.924;2022-07-12T08:40:26;3.47;;;2.75;;
69401;SDS011;56589;51.992;5.924;2022-07-12T08:42:52;6.78;;;2.55;;
69401;SDS011;56589;51.992;5.924;2022-07-12T08:45:22;3.88;;;2.70;;
69401;SDS011;56589;51.992;5.924;2022-07-12T08:47:50;5.45;;;2.55;;
69401;SDS011;56589;51.992;5.924;2022-07-12T08:50:16;2.55;;;2.35;;
69401;SDS011;56589;51.992;5.924;2022-07-12T08:52:44;3.17;;;2.88;;
69401;SDS011;56589;51.992;5.924;2022-07-12T08:55:16;3.08;;;2.30;;
69401;SDS011;56589;51.992;5.924;2022-07-12T08:57:48;3.92;;;2.40;;
69401;SDS011;56589;51.992;5.924;2022-07-12T09:00:16;2.95;;;2.40;;
69401;SDS011;56589;51.992;5.924;2022-07-12T09:02:43;4.72;;;2.85;;
69401;SDS011;56589;51.992;5.924;2022-07-12T09:05:16;2.67;;;2.35;;
69401;SDS011;56589;51.992;5.924;2022-07-12T09:07:43;3.88;;;2.45;;
69401;SDS011;56589;51.992;5.924;2022-07-12T09:10:09;4.90;;;2.55;;
69401;SDS011;56589;51.992;5.924;2022-07-12T09:12:39;3.67;;;3.05;;
69401;SDS011;56589;51.992;5.924;2022-07-12T09:15:12;3.60;;;2.58;;
69401;SDS011;56589;51.992;5.924;2022-07-12T09:17:56;4.55;;;3.25;;
69401;SDS011;56589;51.992;5.924;2022-07-12T09:20:25;6.22;;;3.47;;
69401;SDS011;56589;51.992;5.924;2022-07-12T09:22:52;3.55;;;2.38;;
69401;SDS011;56589;51.992;5.924;2022-07-12T09:25:20;4.28;;;2.70;;
69401;SDS011;56589;51.992;5.924;2022-07-12T09:27:53;3.90;;;3.08;;
69401;SDS011;56589;51.992;5.924;2022-07-12T09:30:21;3.45;;;2.40;;
69401;SDS011;56589;51.992;5.924;2022-07-12T09:32:49;3.45;;;1.80;;
69401;SDS011;56589;51.992;5.924;2022-07-12T09:35:22;2.47;;;2.20;;
69401;SDS011;56589;51.992;5.924;2022-07-12T09:37:48;4.13;;;2.10;;
69401;SDS011;56589;51.992;5.924;2022-07-12T09:40:14;5.35;;;2.72;;
69401;SDS011;56589;51.992;5.924;2022-07-12T09:42:40;3.08;;;2.53;;
69401;SDS011;56589;51.992;5.924;2022-07-12T09:45:07;2.35;;;1.85;;
69401;SDS011;56589;51.992;5.924;2022-07-12T09:47:35;5.93;;;1.70;;
69401;SDS011;56589;51.992;5.924;2022-07-12T09:50:04;5.00;;;2.45;;
69401;SDS011;56589;51.992;5.924;2022-07-12T09:52:31;5.75;;;3.35;;
69401;SDS011;56589;51.992;5.924;2022-07-12T09:55:02;5.50;;;2.40;;
69401;SDS011;56589;51.992;5.924;2022-07-12T09:57:33;3.30;;;1.60;;
69401;SDS011;56589;51.992;5.924;2022-07-12T10:00:05;4.25;;;2.35;;
69401;SDS011;56589;51.992;5.924;2022-07-12T10:02:32;2.28;;;1.83;;
69401;SDS011;56589;51.992;5.924;2022-07-12T10:05:00;1.77;;;1.55;;
69401;SDS011;56589;51.992;5.924;2022-07-12T10:07:32;1.90;;;1.45;;
69401;SDS011;56589;51.992;5.924;2022-07-12T10:10:01;2.83;;;1.70;;
69401;SDS011;56589;51.992;5.924;2022-07-12T10:12:27;5.68;;;1.90;;
69401;SDS011;56589;51.992;5.924;2022-07-12T10:14:55;3.15;;;2.10;;
69401;SDS011;56589;51.992;5.924;2022-07-12T10:17:29;2.78;;;1.58;;
69401;SDS011;56589;51.992;5.924;2022-07-12T10:22:42;3.05;;;1.70;;
69401;SDS011;56589;51.992;5.924;2022-07-12T10:27:55;3.60;;;1.77;;
69401;SDS011;56589;51.992;5.924;2022-07-12T10:30:21;1.90;;;1.80;;
69401;SDS011;56589;51.992;5.924;2022-07-12T10:32:48;2.88;;;2.15;;
69401;SDS011;56589;51.992;5.924;2022-07-12T10:35:21;3.00;;;1.90;;
69401;SDS011;56589;51.992;5.924;2022-07-12T10:40:46;1.52;;;1.40;;
69401;SDS011;56589;51.992;5.924;2022-07-12T10:43:15;2.03;;;1.25;;
69401;SDS011;56589;51.992;5.924;2022-07-12T10:45:47;3.53;;;1.20;;
69401;SDS011;56589;51.992;5.924;2022-07-12T10:48:20;3.03;;;1.25;;
69401;SDS011;56589;51.992;5.924;2022-07-12T10:53:42;1.40;;;0.90;;
69401;SDS011;56589;51.992;5.924;2022-07-12T10:56:11;3.97;;;1.67;;
69401;SDS011;56589;51.992;5.924;2022-07-12T11:01:10;2.55;;;1.33;;
69401;SDS011;56589;51.992;5.924;2022-07-12T11:03:38;2.28;;;1.00;;
69401;SDS011;56589;51.992;5.924;2022-07-12T11:06:06;3.03;;;1.00;;
69401;SDS011;56589;51.992;5.924;2022-07-12T11:08:48;1.85;;;0.88;;
69401;SDS011;56589;51.992;5.924;2022-07-12T11:11:16;3.78;;;1.20;;
69401;SDS011;56589;51.992;5.924;2022-07-12T11:13:44;1.88;;;1.00;;
69401;SDS011;56589;51.992;5.924;2022-07-12T11:16:11;1.95;;;1.42;;
69401;SDS011;56589;51.992;5.924;2022-07-12T11:18:37;4.70;;;1.80;;
69401;SDS011;56589;51.992;5.924;2022-07-12T11:21:04;5.10;;;1.50;;
69401;SDS011;56589;51.992;5.924;2022-07-12T11:23:30;5.95;;;1.63;;
69401;SDS011;56589;51.992;5.924;2022-07-12T11:26:00;6.38;;;2.60;;
69401;SDS011;56589;51.992;5.924;2022-07-12T11:28:28;1.73;;;1.58;;
69401;SDS011;56589;51.992;5.924;2022-07-12T11:31:01;2.90;;;1.90;;
69401;SDS011;56589;51.992;5.924;2022-07-12T11:35:56;4.00;;;2.10;;
69401;SDS011;56589;51.992;5.924;2022-07-12T11:38:23;3.30;;;1.85;;
69401;SDS011;56589;51.992;5.924;2022-07-12T11:40:53;3.95;;;1.90;;
69401;SDS011;56589;51.992;5.924;2022-07-12T11:43:23;2.92;;;2.40;;
69401;SDS011;56589;51.992;5.924;2022-07-12T11:45:52;3.53;;;1.90;;
69401;SDS011;56589;51.992;5.924;2022-07-12T11:48:19;3.67;;;2.60;;
69401;SDS011;56589;51.992;5.924;2022-07-12T11:50:47;2.17;;;1.92;;
69401;SDS011;56589;51.992;5.924;2022-07-12T11:53:16;4.40;;;2.25;;
69401;SDS011;56589;51.992;5.924;2022-07-12T11:55:43;3.53;;;3.00;;
69401;SDS011;56589;51.992;5.924;2022-07-12T11:58:11;5.82;;;1.90;;
69401;SDS011;56589;51.992;5.924;2022-07-12T12:00:40;7.22;;;2.10;;
69401;SDS011;56589;51.992;5.924;2022-07-12T12:03:07;4.80;;;2.65;;
69401;SDS011;56589;51.992;5.924;2022-07-12T12:05:34;3.78;;;2.30;;
69401;SDS011;56589;51.992;5.924;2022-07-12T12:08:01;3.38;;;2.75;;
69401;SDS011;56589;51.992;5.924;2022-07-12T12:10:27;2.97;;;2.53;;
69401;SDS011;56589;51.992;5.924;2022-07-12T12:12:54;2.60;;;2.05;;
69401;SDS011;56589;51.992;5.924;2022-07-12T12:15:22;4.80;;;3.38;;
69401;SDS011;56589;51.992;5.924;2022-07-12T12:17:54;4.22;;;3.80;;
69401;SDS011;56589;51.992;5.924;2022-07-12T12:20:23;7.65;;;2.88;;
69401;SDS011;56589;51.992;5.924;2022-07-12T12:22:51;4.43;;;3.10;;
69401;SDS011;56589;51.992;5.924;2022-07-12T12:25:19;3.42;;;2.25;;
69401;SDS011;56589;51.992;5.924;2022-07-12T12:27:46;3.83;;;2.15;;
69401;SDS011;56589;51.992;5.924;2022-07-12T12:30:14;1.73;;;1.50;;
69401;SDS011;56589;51.992;5.924;2022-07-12T12:32:43;3.00;;;1.95;;
69401;SDS011;56589;51.992;5.924;2022-07-12T12:35:17;2.13;;;1.93;;
69401;SDS011;56589;51.992;5.924;2022-07-12T12:37:48;5.67;;;2.30;;
69401;SDS011;56589;51.992;5.924;2022-07-12T12:40:19;2.60;;;1.60;;
69401;SDS011;56589;51.992;5.924;2022-07-12T12:42:47;5.38;;;2.08;;
69401;SDS011;56589;51.992;5.924;2022-07-12T12:45:19;3.25;;;2.08;;
69401;SDS011;56589;51.992;5.924;2022-07-12T12:47:53;3.05;;;1.55;;
69401;SDS011;56589;51.992;5.924;2022-07-12T12:53:13;1.92;;;1.73;;
69401;SDS011;56589;51.992;5.924;2022-07-12T12:55:41;4.68;;;1.92;;
69401;SDS011;56589;51.992;5.924;2022-07-12T12:58:09;5.10;;;2.22;;
69401;SDS011;56589;51.992;5.924;2022-07-12T13:00:37;5.20;;;2.80;;
69401;SDS011;56589;51.992;5.924;2022-07-12T13:03:08;5.88;;;3.10;;
69401;SDS011;56589;51.992;5.924;2022-07-12T13:05:35;3.40;;;1.42;;
69401;SDS011;56589;51.992;5.924;2022-07-12T13:08:05;3.92;;;1.50;;
69401;SDS011;56589;51.992;5.924;2022-07-12T13:10:34;6.05;;;2.20;;
69401;SDS011;56589;51.992;5.924;2022-07-12T13:13:03;3.60;;;2.15;;
69401;SDS011;56589;51.992;5.924;2022-07-12T13:15:30;4.03;;;1.90;;
69401;SDS011;56589;51.992;5.924;2022-07-12T13:17:56;2.33;;;1.80;;
69401;SDS011;56589;51.992;5.924;2022-07-12T13:20:22;6.95;;;2.92;;
69401;SDS011;56589;51.992;5.924;2022-07-12T13:22:50;5.00;;;2.55;;
69401;SDS011;56589;51.992;5.924;2022-07-12T13:25:18;2.67;;;2.13;;
69401;SDS011;56589;51.992;5.924;2022-07-12T13:27:44;4.18;;;1.75;;
69401;SDS011;56589;51.992;5.924;2022-07-12T13:30:11;2.33;;;1.92;;
69401;SDS011;56589;51.992;5.924;2022-07-12T13:32:40;4.05;;;2.40;;
69401;SDS011;56589;51.992;5.924;2022-07-12T13:35:07;3.00;;;2.25;;
69401;SDS011;56589;51.992;5.924;2022-07-12T13:37:35;3.33;;;2.65;;
69401;SDS011;56589;51.992;5.924;2022-07-12T13:40:03;2.95;;;2.50;;
69401;SDS011;56589;51.992;5.924;2022-07-12T13:42:35;4.22;;;2.97;;
69401;SDS011;56589;51.992;5.924;2022-07-12T13:45:01;2.47;;;2.13;;
69401;SDS011;56589;51.992;5.924;2022-07-12T13:47:28;3.63;;;2.50;;
69401;SDS011;56589;51.992;5.924;2022-07-12T13:49:54;2.53;;;2.30;;
69401;SDS011;56589;51.992;5.924;2022-07-12T13:52:19;4.78;;;2.15;;
69401;SDS011;56589;51.992;5.924;2022-07-12T13:54:45;5.35;;;2.70;;
69401;SDS011;56589;51.992;5.924;2022-07-12T13:57:11;3.53;;;2.10;;
69401;SDS011;56589;51.992;5.924;2022-07-12T13:59:39;3.65;;;1.67;;
69401;SDS011;56589;51.992;5.924;2022-07-12T14:02:06;6.57;;;2.47;;
69401;SDS011;56589;51.992;5.924;2022-07-12T14:04:32;5.82;;;2.42;;
69401;SDS011;56589;51.992;5.924;2022-07-12T14:06:57;3.83;;;1.70;;
69401;SDS011;56589;51.992;5.924;2022-07-12T14:09:24;3.08;;;1.98;;
69401;SDS011;56589;51.992;5.924;2022-07-12T14:11:50;3.75;;;1.88;;
69401;SDS011;56589;51.992;5.924;2022-07-12T14:14:16;3.25;;;1.77;;
69401;SDS011;56589;51.992;5.924;2022-07-12T14:16:44;1.52;;;1.42;;
69401;SDS011;56589;51.992;5.924;2022-07-12T14:19:10;2.67;;;1.50;;
69401;SDS011;56589;51.992;5.924;2022-07-12T14:21:35;2.97;;;1.52;;
69401;SDS011;56589;51.992;5.924;2022-07-12T14:24:01;2.22;;;1.60;;
69401;SDS011;56589;51.992;5.924;2022-07-12T14:26:27;1.90;;;1.70;;
69401;SDS011;56589;51.992;5.924;2022-07-12T14:28:53;3.85;;;2.08;;
69401;SDS011;56589;51.992;5.924;2022-07-12T14:31:19;3.00;;;2.15;;
69401;SDS011;56589;51.992;5.924;2022-07-12T14:33:48;2.72;;;1.50;;
69401;SDS011;56589;51.992;5.924;2022-07-12T14:36:13;5.60;;;1.80;;
69401;SDS011;56589;51.992;5.924;2022-07-12T14:38:39;5.90;;;1.73;;
69401;SDS011;56589;51.992;5.924;2022-07-12T14:41:05;2.20;;;1.58;;
69401;SDS011;56589;51.992;5.924;2022-07-12T14:43:31;4.32;;;1.30;;
69401;SDS011;56589;51.992;5.924;2022-07-12T14:45:57;3.03;;;1.25;;
69401;SDS011;56589;51.992;5.924;2022-07-12T14:48:22;1.70;;;1.00;;
69401;SDS011;56589;51.992;5.924;2022-07-12T14:50:52;2.65;;;0.90;;
69401;SDS011;56589;51.992;5.924;2022-07-12T14:53:18;1.35;;;0.93;;
69401;SDS011;56589;51.992;5.924;2022-07-12T14:55:44;2.70;;;1.35;;
69401;SDS011;56589;51.992;5.924;2022-07-12T14:58:10;1.23;;;0.82;;
69401;SDS011;56589;51.992;5.924;2022-07-12T15:00:36;2.10;;;1.15;;
69401;SDS011;56589;51.992;5.924;2022-07-12T15:03:01;3.33;;;1.33;;
69401;SDS011;56589;51.992;5.924;2022-07-12T15:05:28;1.65;;;1.23;;